sensor_id;sensor_type;location;lat;lon;timestamp;temperature;humidity
33093;DHT22;19456;46.104;12.908;2024-01-15T00:02:11;2.90;99.90
33093;DHT22;19456;46.104;12.908;2024-01-15T00:04:37;3.00;99.90
33093;DHT22;19456;46.104;12.908;2024-01-15T00:07:04;3.10;99.90
33093;DHT22;19456;46.104;12.908;2024-01-15T00:09:29;3.10;99.90
33093;DHT22;19456;46.104;12.908;2024-01-15T00:11:55;3.10;99.90
33093;DHT22;19456;46.104;12.908;2024-01-15T00:14:20;3.00;99.90
33093;DHT22;19456;46.104;12.908;2024-01-15T00:16:46;2.90;99.90
33093;DHT22;19456;46.104;12.908;2024-01-15T00:19:12;2.80;99.90
33093;DHT22;19456;46.104;12.908;2024-01-15T00:21:38;2.70;99.90
33093;DHT22;19456;46.104;12.908;2024-01-15T00:24:03;2.60;99.90
33093;DHT22;19456;46.104;12.908;2024-01-15T00:26:29;2.70;99.90
33093;DHT22;19456;46.104;12.908;2024-01-15T00:28:54;2.80;99.90
33093;DHT22;19456;46.104;12.908;2024-01-15T00:31:20;3.00;99.90
33093;DHT22;19456;46.104;12.908;2024-01-15T00:33:45;3.00;99.90
33093;DHT22;19456;46.104;12.908;2024-01-15T00:36:11;2.90;99.90
33093;DHT22;19456;46.104;12.908;2024-01-15T00:38:36;2.90;99.90
33093;DHT22;19456;46.104;12.908;2024-01-15T00:41:02;3.00;99.90
33093;DHT22;19456;46.104;12.908;2024-01-15T00:43:28;2.90;99.90
33093;DHT22;19456;46.104;12.908;2024-01-15T00:45:53;2.80;99.90
33093;DHT22;19456;46.104;12.908;2024-01-15T00:48:19;2.80;99.90
33093;DHT22;19456;46.104;12.908;2024-01-15T00:50:44;2.90;99.90
33093;DHT22;19456;46.104;12.908;2024-01-15T00:53:10;2.90;99.90
33093;DHT22;19456;46.104;12.908;2024-01-15T00:55:36;3.00;99.90
33093;DHT22;19456;46.104;12.908;2024-01-15T00:58:03;3.00;99.90
33093;DHT22;19456;46.104;12.908;2024-01-15T01:00:28;3.00;99.90
33093;DHT22;19456;46.104;12.908;2024-01-15T01:02:54;3.00;99.90
33093;DHT22;19456;46.104;12.908;2024-01-15T01:05:19;2.90;99.90
33093;DHT22;19456;46.104;12.908;2024-01-15T01:07:45;2.90;99.90
33093;DHT22;19456;46.104;12.908;2024-01-15T01:10:11;2.90;99.90
33093;DHT22;19456;46.104;12.908;2024-01-15T01:12:36;2.80;99.90
33093;DHT22;19456;46.104;12.908;2024-01-15T01:15:02;2.70;99.90
33093;DHT22;19456;46.104;12.908;2024-01-15T01:17:28;2.70;99.90
33093;DHT22;19456;46.104;12.908;2024-01-15T01:19:53;2.70;99.90
33093;DHT22;19456;46.104;12.908;2024-01-15T01:22:19;2.70;99.90
33093;DHT22;19456;46.104;12.908;2024-01-15T01:24:44;2.80;99.90
33093;DHT22;19456;46.104;12.908;2024-01-15T01:27:10;2.80;99.90
33093;DHT22;19456;46.104;12.908;2024-01-15T01:29:35;2.90;99.90
33093;DHT22;19456;46.104;12.908;2024-01-15T01:32:01;2.90;99.90
33093;DHT22;19456;46.104;12.908;2024-01-15T01:34:26;3.00;99.90
33093;DHT22;19456;46.104;12.908;2024-01-15T01:36:53;3.10;99.90
33093;DHT22;19456;46.104;12.908;2024-01-15T01:39:18;3.10;99.90
33093;DHT22;19456;46.104;12.908;2024-01-15T01:41:44;3.30;99.90
33093;DHT22;19456;46.104;12.908;2024-01-15T01:44:09;3.40;99.90
33093;DHT22;19456;46.104;12.908;2024-01-15T01:46:35;3.10;99.90
33093;DHT22;19456;46.104;12.908;2024-01-15T01:49:05;2.90;99.90
33093;DHT22;19456;46.104;12.908;2024-01-15T01:51:31;2.80;99.90
33093;DHT22;19456;46.104;12.908;2024-01-15T01:53:58;2.80;99.90
33093;DHT22;19456;46.104;12.908;2024-01-15T01:56:24;3.00;99.90
33093;DHT22;19456;46.104;12.908;2024-01-15T01:58:50;3.10;99.90
33093;DHT22;19456;46.104;12.908;2024-01-15T02:01:15;3.10;99.90
33093;DHT22;19456;46.104;12.908;2024-01-15T02:03:42;3.10;99.90
33093;DHT22;19456;46.104;12.908;2024-01-15T02:06:08;3.10;99.90
33093;DHT22;19456;46.104;12.908;2024-01-15T02:08:34;3.00;99.90
33093;DHT22;19456;46.104;12.908;2024-01-15T02:11:00;3.00;99.90
33093;DHT22;19456;46.104;12.908;2024-01-15T02:13:25;3.00;99.90
33093;DHT22;19456;46.104;12.908;2024-01-15T02:15:51;3.00;99.90
33093;DHT22;19456;46.104;12.908;2024-01-15T02:18:17;3.00;99.90
33093;DHT22;19456;46.104;12.908;2024-01-15T02:20:42;2.90;99.90
33093;DHT22;19456;46.104;12.908;2024-01-15T02:23:10;2.90;99.90
33093;DHT22;19456;46.104;12.908;2024-01-15T02:25:45;2.80;99.90
33093;DHT22;19456;46.104;12.908;2024-01-15T02:28:12;2.90;99.90
33093;DHT22;19456;46.104;12.908;2024-01-15T02:30:39;3.00;99.90
33093;DHT22;19456;46.104;12.908;2024-01-15T02:33:05;3.10;99.90
33093;DHT22;19456;46.104;12.908;2024-01-15T02:35:31;3.10;99.90
33093;DHT22;19456;46.104;12.908;2024-01-15T02:37:56;3.20;99.90
33093;DHT22;19456;46.104;12.908;2024-01-15T02:40:22;3.20;99.90
33093;DHT22;19456;46.104;12.908;2024-01-15T02:42:48;3.20;99.90
33093;DHT22;19456;46.104;12.908;2024-01-15T02:45:13;3.20;99.90
33093;DHT22;19456;46.104;12.908;2024-01-15T02:47:39;3.20;99.90
33093;DHT22;19456;46.104;12.908;2024-01-15T02:50:04;3.10;99.90
33093;DHT22;19456;46.104;12.908;2024-01-15T02:52:30;3.10;99.90
33093;DHT22;19456;46.104;12.908;2024-01-15T02:54:56;3.10;99.90
33093;DHT22;19456;46.104;12.908;2024-01-15T02:57:21;3.10;99.90
33093;DHT22;19456;46.104;12.908;2024-01-15T02:59:47;3.00;99.90
33093;DHT22;19456;46.104;12.908;2024-01-15T03:02:12;3.00;99.90
33093;DHT22;19456;46.104;12.908;2024-01-15T03:04:42;3.00;99.90
33093;DHT22;19456;46.104;12.908;2024-01-15T03:07:08;3.00;99.90
33093;DHT22;19456;46.104;12.908;2024-01-15T03:09:33;3.00;99.90
33093;DHT22;19456;46.104;12.908;2024-01-15T03:11:59;3.10;99.90
33093;DHT22;19456;46.104;12.908;2024-01-15T03:14:24;3.00;99.90
33093;DHT22;19456;46.104;12.908;2024-01-15T03:16:51;2.80;99.90
33093;DHT22;19456;46.104;12.908;2024-01-15T03:19:17;2.70;99.90
33093;DHT22;19456;46.104;12.908;2024-01-15T03:21:42;2.70;99.90
33093;DHT22;19456;46.104;12.908;2024-01-15T03:24:08;2.40;99.90
33093;DHT22;19456;46.104;12.908;2024-01-15T03:26:33;2.40;99.90
33093;DHT22;19456;46.104;12.908;2024-01-15T03:28:59;2.40;99.90
33093;DHT22;19456;46.104;12.908;2024-01-15T03:31:25;2.20;99.90
33093;DHT22;19456;46.104;12.908;2024-01-15T03:33:50;2.00;99.90
33093;DHT22;19456;46.104;12.908;2024-01-15T03:36:16;1.90;99.90
33093;DHT22;19456;46.104;12.908;2024-01-15T03:38:41;2.00;99.90
33093;DHT22;19456;46.104;12.908;2024-01-15T03:41:07;2.10;99.90
33093;DHT22;19456;46.104;12.908;2024-01-15T03:43:33;2.10;99.90
33093;DHT22;19456;46.104;12.908;2024-01-15T03:45:58;2.10;99.90
33093;DHT22;19456;46.104;12.908;2024-01-15T03:48:24;2.10;99.90
33093;DHT22;19456;46.104;12.908;2024-01-15T03:50:49;2.10;99.90
33093;DHT22;19456;46.104;12.908;2024-01-15T03:53:15;2.00;99.90
33093;DHT22;19456;46.104;12.908;2024-01-15T03:55:41;2.00;99.90
33093;DHT22;19456;46.104;12.908;2024-01-15T03:58:07;2.00;99.90
33093;DHT22;19456;46.104;12.908;2024-01-15T04:00:32;1.90;99.90
33093;DHT22;19456;46.104;12.908;2024-01-15T04:02:58;1.90;99.90
33093;DHT22;19456;46.104;12.908;2024-01-15T04:05:23;2.00;99.90
33093;DHT22;19456;46.104;12.908;2024-01-15T04:07:49;2.10;99.90
33093;DHT22;19456;46.104;12.908;2024-01-15T04:10:15;2.10;99.90
33093;DHT22;19456;46.104;12.908;2024-01-15T04:12:40;2.00;99.90
33093;DHT22;19456;46.104;12.908;2024-01-15T04:15:06;1.90;99.90
33093;DHT22;19456;46.104;12.908;2024-01-15T04:17:31;1.70;99.90
33093;DHT22;19456;46.104;12.908;2024-01-15T04:19:57;1.60;99.90
33093;DHT22;19456;46.104;12.908;2024-01-15T04:22:22;1.50;99.90
33093;DHT22;19456;46.104;12.908;2024-01-15T04:24:48;1.50;99.90
33093;DHT22;19456;46.104;12.908;2024-01-15T04:27:15;1.60;99.90
33093;DHT22;19456;46.104;12.908;2024-01-15T04:29:41;1.60;99.90
33093;DHT22;19456;46.104;12.908;2024-01-15T04:32:06;1.60;99.90
33093;DHT22;19456;46.104;12.908;2024-01-15T04:34:32;1.60;99.90
33093;DHT22;19456;46.104;12.908;2024-01-15T04:36:57;1.70;99.90
33093;DHT22;19456;46.104;12.908;2024-01-15T04:39:23;1.90;99.90
33093;DHT22;19456;46.104;12.908;2024-01-15T04:41:49;2.00;99.90
33093;DHT22;19456;46.104;12.908;2024-01-15T04:44:14;2.00;99.90
33093;DHT22;19456;46.104;12.908;2024-01-15T04:46:40;2.10;99.90
33093;DHT22;19456;46.104;12.908;2024-01-15T04:49:06;2.00;99.90
33093;DHT22;19456;46.104;12.908;2024-01-15T04:51:32;2.00;99.90
33093;DHT22;19456;46.104;12.908;2024-01-15T04:53:57;2.00;99.90
33093;DHT22;19456;46.104;12.908;2024-01-15T04:56:26;1.80;99.90
33093;DHT22;19456;46.104;12.908;2024-01-15T04:58:51;1.60;99.90
33093;DHT22;19456;46.104;12.908;2024-01-15T05:01:17;1.60;99.90
33093;DHT22;19456;46.104;12.908;2024-01-15T05:03:43;1.50;99.90
33093;DHT22;19456;46.104;12.908;2024-01-15T05:06:08;1.50;99.90
33093;DHT22;19456;46.104;12.908;2024-01-15T05:08:34;1.50;99.90
33093;DHT22;19456;46.104;12.908;2024-01-15T05:10:59;1.50;99.90
33093;DHT22;19456;46.104;12.908;2024-01-15T05:13:25;1.60;99.90
33093;DHT22;19456;46.104;12.908;2024-01-15T05:15:50;1.60;99.90
33093;DHT22;19456;46.104;12.908;2024-01-15T05:18:16;1.50;99.90
33093;DHT22;19456;46.104;12.908;2024-01-15T05:20:42;1.70;99.90
33093;DHT22;19456;46.104;12.908;2024-01-15T05:23:07;1.70;99.90
33093;DHT22;19456;46.104;12.908;2024-01-15T05:25:33;1.80;99.90
33093;DHT22;19456;46.104;12.908;2024-01-15T05:27:59;2.00;99.90
33093;DHT22;19456;46.104;12.908;2024-01-15T05:30:24;2.10;99.90
33093;DHT22;19456;46.104;12.908;2024-01-15T05:32:50;2.00;99.90
33093;DHT22;19456;46.104;12.908;2024-01-15T05:35:16;2.00;99.90
33093;DHT22;19456;46.104;12.908;2024-01-15T05:37:43;2.10;99.90
33093;DHT22;19456;46.104;12.908;2024-01-15T05:40:08;1.90;99.90
33093;DHT22;19456;46.104;12.908;2024-01-15T05:42:34;2.00;99.90
33093;DHT22;19456;46.104;12.908;2024-01-15T05:44:59;2.00;99.90
33093;DHT22;19456;46.104;12.908;2024-01-15T05:47:27;2.20;99.90
33093;DHT22;19456;46.104;12.908;2024-01-15T05:49:52;2.20;99.90
33093;DHT22;19456;46.104;12.908;2024-01-15T05:52:18;2.20;99.90
33093;DHT22;19456;46.104;12.908;2024-01-15T05:54:43;1.90;99.90
33093;DHT22;19456;46.104;12.908;2024-01-15T05:57:09;1.90;99.90
33093;DHT22;19456;46.104;12.908;2024-01-15T05:59:35;2.00;99.90
33093;DHT22;19456;46.104;12.908;2024-01-15T06:02:01;2.00;99.90
33093;DHT22;19456;46.104;12.908;2024-01-15T06:04:27;2.00;99.90
33093;DHT22;19456;46.104;12.908;2024-01-15T06:06:52;1.90;99.90
33093;DHT22;19456;46.104;12.908;2024-01-15T06:09:18;2.00;99.90
33093;DHT22;19456;46.104;12.908;2024-01-15T06:11:43;2.20;99.90
33093;DHT22;19456;46.104;12.908;2024-01-15T06:14:09;2.20;99.90
33093;DHT22;19456;46.104;12.908;2024-01-15T06:16:34;2.10;99.90
33093;DHT22;19456;46.104;12.908;2024-01-15T06:19:00;2.00;99.90
33093;DHT22;19456;46.104;12.908;2024-01-15T06:21:25;1.90;99.90
33093;DHT22;19456;46.104;12.908;2024-01-15T06:23:51;1.90;99.90
33093;DHT22;19456;46.104;12.908;2024-01-15T06:26:17;1.70;99.90
33093;DHT22;19456;46.104;12.908;2024-01-15T06:28:42;1.50;99.90
33093;DHT22;19456;46.104;12.908;2024-01-15T06:31:08;1.40;99.90
33093;DHT22;19456;46.104;12.908;2024-01-15T06:33:33;1.20;99.90
33093;DHT22;19456;46.104;12.908;2024-01-15T06:35:59;1.40;99.90
33093;DHT22;19456;46.104;12.908;2024-01-15T06:38:24;1.50;99.90
33093;DHT22;19456;46.104;12.908;2024-01-15T06:40:50;1.40;99.90
33093;DHT22;19456;46.104;12.908;2024-01-15T06:43:17;1.30;99.90
33093;DHT22;19456;46.104;12.908;2024-01-15T06:45:45;1.20;99.90
33093;DHT22;19456;46.104;12.908;2024-01-15T06:48:11;0.90;99.90
33093;DHT22;19456;46.104;12.908;2024-01-15T06:50:47;0.80;99.90
33093;DHT22;19456;46.104;12.908;2024-01-15T06:53:17;0.90;99.90
33093;DHT22;19456;46.104;12.908;2024-01-15T06:55:54;0.80;99.90
33093;DHT22;19456;46.104;12.908;2024-01-15T06:58:33;0.90;99.90
33093;DHT22;19456;46.104;12.908;2024-01-15T07:01:00;0.90;99.90
33093;DHT22;19456;46.104;12.908;2024-01-15T07:03:26;1.00;99.90
33093;DHT22;19456;46.104;12.908;2024-01-15T07:05:52;1.20;99.90
33093;DHT22;19456;46.104;12.908;2024-01-15T07:08:22;1.20;99.90
33093;DHT22;19456;46.104;12.908;2024-01-15T07:10:48;1.40;99.90
33093;DHT22;19456;46.104;12.908;2024-01-15T07:13:17;1.50;99.90
33093;DHT22;19456;46.104;12.908;2024-01-15T07:15:43;1.60;99.90
33093;DHT22;19456;46.104;12.908;2024-01-15T07:18:08;1.60;99.90
33093;DHT22;19456;46.104;12.908;2024-01-15T07:20:34;1.50;99.90
33093;DHT22;19456;46.104;12.908;2024-01-15T07:22:59;1.30;99.90
33093;DHT22;19456;46.104;12.908;2024-01-15T07:25:25;1.30;99.90
33093;DHT22;19456;46.104;12.908;2024-01-15T07:27:51;1.50;99.90
33093;DHT22;19456;46.104;12.908;2024-01-15T07:30:19;1.90;99.90
33093;DHT22;19456;46.104;12.908;2024-01-15T07:32:44;2.10;99.90
33093;DHT22;19456;46.104;12.908;2024-01-15T07:35:10;2.30;99.90
33093;DHT22;19456;46.104;12.908;2024-01-15T07:37:35;2.50;99.90
33093;DHT22;19456;46.104;12.908;2024-01-15T07:40:01;2.70;99.90
33093;DHT22;19456;46.104;12.908;2024-01-15T07:42:26;2.50;99.90
33093;DHT22;19456;46.104;12.908;2024-01-15T07:44:52;2.30;99.90
33093;DHT22;19456;46.104;12.908;2024-01-15T07:47:17;2.40;99.90
33093;DHT22;19456;46.104;12.908;2024-01-15T07:49:43;2.30;99.90
33093;DHT22;19456;46.104;12.908;2024-01-15T07:52:09;2.00;99.90
33093;DHT22;19456;46.104;12.908;2024-01-15T07:54:35;2.00;99.90
33093;DHT22;19456;46.104;12.908;2024-01-15T07:57:01;2.00;99.90
33093;DHT22;19456;46.104;12.908;2024-01-15T07:59:31;2.00;99.90
33093;DHT22;19456;46.104;12.908;2024-01-15T08:02:01;2.10;99.90
33093;DHT22;19456;46.104;12.908;2024-01-15T08:04:27;2.10;99.90
33093;DHT22;19456;46.104;12.908;2024-01-15T08:06:53;2.30;99.90
33093;DHT22;19456;46.104;12.908;2024-01-15T08:09:22;2.30;99.90
33093;DHT22;19456;46.104;12.908;2024-01-15T08:11:48;2.40;99.90
33093;DHT22;19456;46.104;12.908;2024-01-15T08:14:14;2.20;99.90
33093;DHT22;19456;46.104;12.908;2024-01-15T08:16:40;2.10;99.90
33093;DHT22;19456;46.104;12.908;2024-01-15T08:19:06;2.30;99.90
33093;DHT22;19456;46.104;12.908;2024-01-15T08:21:31;2.40;99.90
33093;DHT22;19456;46.104;12.908;2024-01-15T08:24:01;2.50;99.90
33093;DHT22;19456;46.104;12.908;2024-01-15T08:26:28;2.50;99.90
33093;DHT22;19456;46.104;12.908;2024-01-15T08:28:53;2.60;99.90
33093;DHT22;19456;46.104;12.908;2024-01-15T08:31:20;2.70;99.90
33093;DHT22;19456;46.104;12.908;2024-01-15T08:33:46;2.70;99.90
33093;DHT22;19456;46.104;12.908;2024-01-15T08:36:12;2.80;99.90
33093;DHT22;19456;46.104;12.908;2024-01-15T08:38:39;2.90;99.90
33093;DHT22;19456;46.104;12.908;2024-01-15T08:41:08;2.80;99.90
33093;DHT22;19456;46.104;12.908;2024-01-15T08:43:34;2.80;99.90
33093;DHT22;19456;46.104;12.908;2024-01-15T08:45:59;2.90;99.90
33093;DHT22;19456;46.104;12.908;2024-01-15T08:48:26;3.00;99.90
33093;DHT22;19456;46.104;12.908;2024-01-15T08:50:54;3.20;99.90
33093;DHT22;19456;46.104;12.908;2024-01-15T08:53:20;3.40;99.90
33093;DHT22;19456;46.104;12.908;2024-01-15T08:55:46;3.50;99.90
33093;DHT22;19456;46.104;12.908;2024-01-15T08:58:13;3.70;99.90
33093;DHT22;19456;46.104;12.908;2024-01-15T09:00:38;3.80;99.90
33093;DHT22;19456;46.104;12.908;2024-01-15T09:03:04;3.90;99.90
33093;DHT22;19456;46.104;12.908;2024-01-15T09:05:30;3.90;99.90
33093;DHT22;19456;46.104;12.908;2024-01-15T09:07:57;4.00;99.90
33093;DHT22;19456;46.104;12.908;2024-01-15T09:10:22;4.20;99.90
33093;DHT22;19456;46.104;12.908;2024-01-15T09:12:48;4.40;99.90
33093;DHT22;19456;46.104;12.908;2024-01-15T09:15:14;4.50;99.90
33093;DHT22;19456;46.104;12.908;2024-01-15T09:17:40;4.70;99.90
33093;DHT22;19456;46.104;12.908;2024-01-15T09:20:06;4.80;99.90
33093;DHT22;19456;46.104;12.908;2024-01-15T09:22:31;4.90;99.90
33093;DHT22;19456;46.104;12.908;2024-01-15T09:24:57;5.00;99.90
33093;DHT22;19456;46.104;12.908;2024-01-15T09:27:24;5.10;99.90
33093;DHT22;19456;46.104;12.908;2024-01-15T09:29:53;5.20;99.90
33093;DHT22;19456;46.104;12.908;2024-01-15T09:32:19;5.40;99.90
33093;DHT22;19456;46.104;12.908;2024-01-15T09:34:45;5.50;99.90
33093;DHT22;19456;46.104;12.908;2024-01-15T09:37:11;5.70;99.90
33093;DHT22;19456;46.104;12.908;2024-01-15T09:39:37;5.80;99.90
33093;DHT22;19456;46.104;12.908;2024-01-15T09:42:02;5.90;99.90
33093;DHT22;19456;46.104;12.908;2024-01-15T09:44:29;6.10;99.90
33093;DHT22;19456;46.104;12.908;2024-01-15T09:46:55;6.20;99.90
33093;DHT22;19456;46.104;12.908;2024-01-15T09:49:26;6.20;99.90
33093;DHT22;19456;46.104;12.908;2024-01-15T09:51:56;6.30;99.90
33093;DHT22;19456;46.104;12.908;2024-01-15T09:54:25;6.30;99.90
33093;DHT22;19456;46.104;12.908;2024-01-15T09:56:58;6.50;99.90
33093;DHT22;19456;46.104;12.908;2024-01-15T09:59:25;6.50;99.90
33093;DHT22;19456;46.104;12.908;2024-01-15T10:01:52;6.60;99.90
33093;DHT22;19456;46.104;12.908;2024-01-15T10:04:21;6.70;99.90
33093;DHT22;19456;46.104;12.908;2024-01-15T10:06:47;6.80;99.90
33093;DHT22;19456;46.104;12.908;2024-01-15T10:09:13;6.90;99.90
33093;DHT22;19456;46.104;12.908;2024-01-15T10:11:43;6.90;99.90
33093;DHT22;19456;46.104;12.908;2024-01-15T10:14:10;7.00;99.90
33093;DHT22;19456;46.104;12.908;2024-01-15T10:16:39;7.10;99.90
33093;DHT22;19456;46.104;12.908;2024-01-15T10:19:05;7.20;99.90
33093;DHT22;19456;46.104;12.908;2024-01-15T10:21:34;7.20;99.90
33093;DHT22;19456;46.104;12.908;2024-01-15T10:24:03;7.30;99.90
33093;DHT22;19456;46.104;12.908;2024-01-15T10:26:29;7.30;99.90
33093;DHT22;19456;46.104;12.908;2024-01-15T10:28:55;7.40;99.90
33093;DHT22;19456;46.104;12.908;2024-01-15T10:31:20;7.50;99.90
33093;DHT22;19456;46.104;12.908;2024-01-15T10:33:47;7.50;99.90
33093;DHT22;19456;46.104;12.908;2024-01-15T10:36:14;7.60;99.90
33093;DHT22;19456;46.104;12.908;2024-01-15T10:38:41;7.70;99.90
33093;DHT22;19456;46.104;12.908;2024-01-15T10:41:07;7.80;99.90
33093;DHT22;19456;46.104;12.908;2024-01-15T10:43:32;8.00;99.90
33093;DHT22;19456;46.104;12.908;2024-01-15T10:45:59;7.90;99.90
33093;DHT22;19456;46.104;12.908;2024-01-15T10:48:25;8.10;99.90
33093;DHT22;19456;46.104;12.908;2024-01-15T10:50:54;8.10;99.90
33093;DHT22;19456;46.104;12.908;2024-01-15T10:53:19;8.20;99.90
33093;DHT22;19456;46.104;12.908;2024-01-15T10:55:46;8.30;99.90
33093;DHT22;19456;46.104;12.908;2024-01-15T10:58:14;8.50;99.90
33093;DHT22;19456;46.104;12.908;2024-01-15T11:00:40;8.60;99.90
33093;DHT22;19456;46.104;12.908;2024-01-15T11:03:06;8.90;99.90
33093;DHT22;19456;46.104;12.908;2024-01-15T11:05:38;9.00;99.90
33093;DHT22;19456;46.104;12.908;2024-01-15T11:08:07;9.10;99.90
33093;DHT22;19456;46.104;12.908;2024-01-15T11:10:43;9.50;99.90
33093;DHT22;19456;46.104;12.908;2024-01-15T11:13:15;9.80;99.90
33093;DHT22;19456;46.104;12.908;2024-01-15T11:16:14;10.00;99.90
33093;DHT22;19456;46.104;12.908;2024-01-15T11:18:39;10.20;99.90
33093;DHT22;19456;46.104;12.908;2024-01-15T11:23:44;11.10;99.90
33093;DHT22;19456;46.104;12.908;2024-01-15T11:26:27;11.60;99.90
33093;DHT22;19456;46.104;12.908;2024-01-15T11:28:54;12.00;99.90
33093;DHT22;19456;46.104;12.908;2024-01-15T11:31:19;12.00;99.90
33093;DHT22;19456;46.104;12.908;2024-01-15T11:33:49;11.70;99.90
33093;DHT22;19456;46.104;12.908;2024-01-15T11:36:15;11.70;99.90
33093;DHT22;19456;46.104;12.908;2024-01-15T11:38:42;11.70;99.90
33093;DHT22;19456;46.104;12.908;2024-01-15T11:41:14;11.80;99.90
33093;DHT22;19456;46.104;12.908;2024-01-15T11:43:43;11.90;99.90
33093;DHT22;19456;46.104;12.908;2024-01-15T11:46:11;12.20;99.90
33093;DHT22;19456;46.104;12.908;2024-01-15T11:48:44;12.70;99.90
33093;DHT22;19456;46.104;12.908;2024-01-15T11:51:11;12.90;99.90
33093;DHT22;19456;46.104;12.908;2024-01-15T11:53:41;13.10;99.90
33093;DHT22;19456;46.104;12.908;2024-01-15T11:56:18;12.30;99.90
33093;DHT22;19456;46.104;12.908;2024-01-15T11:58:49;12.60;99.90
33093;DHT22;19456;46.104;12.908;2024-01-15T12:01:17;12.90;99.90
33093;DHT22;19456;46.104;12.908;2024-01-15T12:03:44;13.10;99.90
33093;DHT22;19456;46.104;12.908;2024-01-15T12:06:09;13.70;99.90
33093;DHT22;19456;46.104;12.908;2024-01-15T12:08:41;14.10;99.90
33093;DHT22;19456;46.104;12.908;2024-01-15T12:11:14;13.90;99.90
33093;DHT22;19456;46.104;12.908;2024-01-15T12:13:41;14.40;99.90
33093;DHT22;19456;46.104;12.908;2024-01-15T12:16:07;14.60;99.90
33093;DHT22;19456;46.104;12.908;2024-01-15T12:18:34;15.10;99.90
33093;DHT22;19456;46.104;12.908;2024-01-15T12:21:00;15.60;99.90
33093;DHT22;19456;46.104;12.908;2024-01-15T12:23:26;16.50;99.90
33093;DHT22;19456;46.104;12.908;2024-01-15T12:25:52;15.70;98.30
33093;DHT22;19456;46.104;12.908;2024-01-15T12:28:18;14.00;99.80
33093;DHT22;19456;46.104;12.908;2024-01-15T12:30:46;14.00;99.90
33093;DHT22;19456;46.104;12.908;2024-01-15T12:54:56;17.60;91.60
33093;DHT22;19456;46.104;12.908;2024-01-15T12:57:22;17.90;91.60
33093;DHT22;19456;46.104;12.908;2024-01-15T12:59:48;18.10;90.70
33093;DHT22;19456;46.104;12.908;2024-01-15T13:02:14;18.20;90.10
33093;DHT22;19456;46.104;12.908;2024-01-15T13:04:41;18.50;90.00
33093;DHT22;19456;46.104;12.908;2024-01-15T13:07:07;18.80;86.80
33093;DHT22;19456;46.104;12.908;2024-01-15T13:09:33;18.30;87.90
33093;DHT22;19456;46.104;12.908;2024-01-15T13:12:00;18.60;86.70
33093;DHT22;19456;46.104;12.908;2024-01-15T13:14:26;18.90;86.60
33093;DHT22;19456;46.104;12.908;2024-01-15T13:16:52;19.60;83.50
33093;DHT22;19456;46.104;12.908;2024-01-15T13:19:19;19.70;81.00
33093;DHT22;19456;46.104;12.908;2024-01-15T13:21:44;18.60;81.50
33093;DHT22;19456;46.104;12.908;2024-01-15T13:24:10;17.60;84.60
33093;DHT22;19456;46.104;12.908;2024-01-15T13:26:36;17.40;87.90
33093;DHT22;19456;46.104;12.908;2024-01-15T13:29:02;16.80;88.40
33093;DHT22;19456;46.104;12.908;2024-01-15T13:31:29;16.40;89.40
33093;DHT22;19456;46.104;12.908;2024-01-15T13:33:54;15.50;90.30
33093;DHT22;19456;46.104;12.908;2024-01-15T13:36:24;14.70;91.90
33093;DHT22;19456;46.104;12.908;2024-01-15T13:38:50;14.80;92.00
33093;DHT22;19456;46.104;12.908;2024-01-15T13:41:16;14.20;93.00
33093;DHT22;19456;46.104;12.908;2024-01-15T13:43:45;13.80;93.90
33093;DHT22;19456;46.104;12.908;2024-01-15T13:46:11;13.80;94.50
33093;DHT22;19456;46.104;12.908;2024-01-15T13:48:36;13.50;95.00
33093;DHT22;19456;46.104;12.908;2024-01-15T13:51:02;13.30;95.00
33093;DHT22;19456;46.104;12.908;2024-01-15T13:53:28;13.20;95.90
33093;DHT22;19456;46.104;12.908;2024-01-15T13:55:54;12.90;95.90
33093;DHT22;19456;46.104;12.908;2024-01-15T13:58:20;12.60;96.50
33093;DHT22;19456;46.104;12.908;2024-01-15T14:00:47;12.10;97.00
33093;DHT22;19456;46.104;12.908;2024-01-15T14:03:13;11.20;98.50
33093;DHT22;19456;46.104;12.908;2024-01-15T14:05:38;10.70;99.90
33093;DHT22;19456;46.104;12.908;2024-01-15T14:08:04;10.30;99.90
33093;DHT22;19456;46.104;12.908;2024-01-15T14:10:30;10.00;99.90
33093;DHT22;19456;46.104;12.908;2024-01-15T14:12:56;9.70;99.90
33093;DHT22;19456;46.104;12.908;2024-01-15T14:15:22;9.60;99.90
33093;DHT22;19456;46.104;12.908;2024-01-15T14:17:48;9.60;99.90
33093;DHT22;19456;46.104;12.908;2024-01-15T14:20:14;9.30;99.90
33093;DHT22;19456;46.104;12.908;2024-01-15T14:22:40;9.10;99.90
33093;DHT22;19456;46.104;12.908;2024-01-15T14:25:06;8.80;99.90
33093;DHT22;19456;46.104;12.908;2024-01-15T14:27:32;8.70;99.90
33093;DHT22;19456;46.104;12.908;2024-01-15T14:29:57;8.70;99.90
33093;DHT22;19456;46.104;12.908;2024-01-15T14:32:23;8.90;99.90
33093;DHT22;19456;46.104;12.908;2024-01-15T14:34:48;8.80;99.90
33093;DHT22;19456;46.104;12.908;2024-01-15T14:37:14;8.60;99.90
33093;DHT22;19456;46.104;12.908;2024-01-15T14:39:40;8.50;99.90
33093;DHT22;19456;46.104;12.908;2024-01-15T14:42:05;8.50;99.90
33093;DHT22;19456;46.104;12.908;2024-01-15T14:44:31;8.60;99.90
33093;DHT22;19456;46.104;12.908;2024-01-15T14:46:59;8.50;99.90
33093;DHT22;19456;46.104;12.908;2024-01-15T14:49:24;8.30;99.90
33093;DHT22;19456;46.104;12.908;2024-01-15T14:51:50;8.10;99.90
33093;DHT22;19456;46.104;12.908;2024-01-15T14:54:16;8.10;99.90
33093;DHT22;19456;46.104;12.908;2024-01-15T14:56:42;8.00;99.90
33093;DHT22;19456;46.104;12.908;2024-01-15T14:59:11;8.00;99.90
33093;DHT22;19456;46.104;12.908;2024-01-15T15:01:36;7.90;99.90
33093;DHT22;19456;46.104;12.908;2024-01-15T15:04:02;7.80;99.90
33093;DHT22;19456;46.104;12.908;2024-01-15T15:06:27;7.80;99.90
33093;DHT22;19456;46.104;12.908;2024-01-15T15:08:53;7.70;99.90
33093;DHT22;19456;46.104;12.908;2024-01-15T15:11:26;7.70;99.90
33093;DHT22;19456;46.104;12.908;2024-01-15T15:13:51;7.80;99.90
33093;DHT22;19456;46.104;12.908;2024-01-15T15:16:26;7.80;99.90
33093;DHT22;19456;46.104;12.908;2024-01-15T15:18:52;7.90;99.90
33093;DHT22;19456;46.104;12.908;2024-01-15T15:21:18;7.80;99.90
33093;DHT22;19456;46.104;12.908;2024-01-15T15:23:44;7.70;99.90
33093;DHT22;19456;46.104;12.908;2024-01-15T15:26:10;7.60;99.90
33093;DHT22;19456;46.104;12.908;2024-01-15T15:28:36;7.60;99.90
33093;DHT22;19456;46.104;12.908;2024-01-15T15:31:05;7.50;99.90
33093;DHT22;19456;46.104;12.908;2024-01-15T15:33:33;7.30;99.90
33093;DHT22;19456;46.104;12.908;2024-01-15T15:35:59;7.20;99.90
33093;DHT22;19456;46.104;12.908;2024-01-15T15:38:30;7.10;99.90
33093;DHT22;19456;46.104;12.908;2024-01-15T15:40:56;7.00;99.90
33093;DHT22;19456;46.104;12.908;2024-01-15T15:43:21;7.00;99.90
33093;DHT22;19456;46.104;12.908;2024-01-15T15:45:47;6.90;99.90
33093;DHT22;19456;46.104;12.908;2024-01-15T15:48:12;6.90;99.90